createdAt,value
2023-04-14T00:00:28.209Z,0.40
2023-04-14T00:01:28.245Z,0.30
2023-04-14T00:02:28.449Z,0.53
2023-04-14T00:03:28.567Z,0.42
2023-04-14T00:04:28.597Z,0.34
2023-04-14T00:05:28.447Z,0.50
2023-04-14T00:06:28.479Z,0.37
2023-04-14T00:07:28.547Z,0.37
2023-04-14T00:08:28.588Z,0.49
2023-04-14T00:09:28.645Z,0.56
2023-04-14T00:10:28.709Z,0.67
2023-04-14T00:11:28.728Z,0.44
2023-04-14T00:12:28.793Z,0.60
2023-04-14T00:13:28.824Z,0.39
2023-04-14T00:14:28.881Z,0.62
2023-04-14T00:15:28.927Z,0.55
2023-04-14T00:16:28.991Z,0.36
2023-04-14T00:17:29.060Z,0.31
2023-04-14T00:18:29.085Z,0.38
2023-04-14T00:19:29.135Z,0.44
2023-04-14T00:20:29.187Z,0.56
2023-04-14T00:21:29.266Z,0.33
2023-04-14T00:22:29.302Z,0.27
2023-04-14T00:23:29.350Z,0.53
2023-04-14T00:24:29.387Z,0.58
2023-04-14T00:25:29.456Z,0.32
2023-04-14T00:26:29.492Z,0.40
2023-04-14T00:27:29.540Z,0.54
2023-04-14T00:28:29.593Z,0.61
2023-04-14T00:29:29.625Z,0.64
2023-04-14T00:30:29.671Z,0.43
2023-04-14T00:31:29.750Z,0.51
2023-04-14T00:32:29.813Z,0.30
2023-04-14T00:33:29.831Z,0.33
2023-04-14T00:34:29.885Z,0.44
2023-04-14T00:35:29.949Z,0.48
2023-04-14T00:36:30.000Z,0.42
2023-04-14T00:37:30.048Z,0.46
2023-04-14T00:38:30.097Z,0.30
2023-04-14T00:39:30.131Z,0.60
2023-04-14T00:40:30.180Z,0.36
2023-04-14T00:41:30.244Z,0.55
2023-04-14T00:42:30.282Z,0.52
2023-04-14T00:43:30.324Z,0.45
2023-04-14T00:44:30.392Z,0.28
2023-04-14T00:45:30.445Z,0.36
2023-04-14T00:46:30.549Z,0.53
2023-04-14T00:47:30.551Z,0.27
2023-04-14T00:48:30.586Z,0.53
2023-04-14T00:49:30.651Z,0.43
2023-04-14T00:50:30.710Z,0.29
2023-04-14T00:51:30.748Z,0.26
2023-04-14T00:52:30.781Z,0.47
2023-04-14T00:53:30.843Z,0.23
2023-04-14T00:54:30.901Z,0.25
2023-04-14T00:55:30.943Z,0.43
2023-04-14T00:56:31.004Z,0.49
2023-04-14T00:57:31.034Z,0.27
2023-04-14T00:58:31.086Z,0.36
2023-04-14T00:59:31.155Z,0.33
2023-04-14T01:00:31.204Z,0.46
2023-04-14T01:01:31.275Z,0.22
2023-04-14T01:02:31.572Z,0.44
2023-04-14T01:03:31.506Z,0.46
2023-04-14T01:04:49.273Z,0.18
2023-04-14T01:05:32.370Z,0.39
2023-04-14T01:06:31.379Z,0.29
2023-04-14T01:07:31.356Z,0.36
2023-04-14T01:08:31.357Z,0.32
2023-04-14T01:09:31.355Z,0.32
2023-04-14T01:10:31.344Z,0.43
2023-04-14T01:11:31.365Z,0.40
2023-04-14T01:12:31.334Z,0.22
2023-04-14T01:13:31.337Z,0.41
2023-04-14T01:14:31.334Z,0.24
2023-04-14T01:15:31.405Z,0.35
2023-04-14T01:16:31.549Z,0.29
2023-04-14T01:17:31.529Z,0.30
2023-04-14T01:18:31.546Z,0.24
2023-04-14T01:19:31.607Z,0.46
2023-04-14T01:20:31.661Z,0.17
2023-04-14T01:21:31.709Z,0.41
2023-04-14T01:22:31.742Z,0.28
2023-04-14T01:23:31.788Z,0.35
2023-04-14T01:24:31.874Z,0.30
2023-04-14T01:25:31.908Z,0.20
2023-04-14T01:26:31.965Z,0.52
2023-04-14T01:27:32.009Z,0.26
2023-04-14T01:28:32.060Z,0.43
2023-04-14T01:29:32.105Z,0.42
2023-04-14T01:30:32.176Z,0.31
2023-04-14T01:31:32.255Z,0.41
2023-04-14T01:32:32.353Z,0.58
2023-04-14T01:33:32.329Z,0.26
2023-04-14T01:34:32.364Z,0.35
2023-04-14T01:35:32.426Z,0.47
2023-04-14T01:36:32.473Z,0.31
2023-04-14T01:37:32.525Z,0.41
2023-04-14T01:38:32.592Z,0.47
2023-04-14T01:39:32.641Z,0.19
2023-04-14T01:40:32.679Z,0.40
2023-04-14T01:41:32.745Z,0.26
2023-04-14T01:42:32.806Z,0.46
2023-04-14T01:43:32.843Z,0.40
2023-04-14T01:44:32.886Z,0.44
2023-04-14T01:45:32.978Z,0.29
2023-04-14T01:46:33.013Z,0.31
2023-04-14T01:47:33.084Z,0.25
2023-04-14T01:48:33.110Z,0.48
2023-04-14T01:49:33.183Z,0.30
2023-04-14T01:50:33.206Z,0.38
2023-04-14T01:51:33.263Z,0.41
2023-04-14T01:52:33.312Z,0.45
2023-04-14T01:53:33.352Z,0.48
2023-04-14T01:54:33.429Z,0.44
2023-04-14T01:55:33.481Z,0.35
2023-04-14T01:56:33.536Z,0.35
2023-04-14T01:57:33.574Z,0.38
2023-04-14T01:58:33.622Z,0.26
2023-04-14T01:59:33.678Z,0.22
2023-04-14T02:00:33.732Z,0.37
2023-04-14T02:01:33.855Z,0.19
2023-04-14T02:02:33.990Z,0.53
2023-04-14T02:03:33.994Z,0.51
2023-04-14T02:04:33.947Z,0.30
2023-04-14T02:05:34.001Z,0.58
2023-04-14T02:06:34.056Z,0.22
2023-04-14T02:07:34.106Z,0.56
2023-04-14T02:08:34.153Z,0.37
2023-04-14T02:09:34.220Z,0.63
2023-04-14T02:10:34.277Z,0.26
2023-04-14T02:11:34.324Z,0.29
2023-04-14T02:12:34.374Z,0.31
2023-04-14T02:13:34.417Z,0.34
2023-04-14T02:14:34.475Z,0.30
2023-04-14T02:15:34.498Z,0.33
2023-04-14T02:16:34.573Z,0.38
2023-04-14T02:17:34.631Z,0.32
2023-04-14T02:18:34.650Z,0.45
2023-04-14T02:19:34.715Z,0.33
2023-04-14T02:20:34.745Z,0.40
2023-04-14T02:21:34.794Z,0.25
2023-04-14T02:22:34.863Z,0.54
2023-04-14T02:23:34.890Z,0.26
2023-04-14T02:24:34.956Z,0.47
2023-04-14T02:25:35.013Z,0.32
2023-04-14T02:26:35.063Z,0.22
2023-04-14T02:27:35.108Z,0.38
2023-04-14T02:28:35.167Z,0.28
2023-04-14T02:29:35.207Z,0.32
2023-04-14T02:30:35.290Z,0.34
2023-04-14T02:31:35.342Z,0.39
2023-04-14T02:32:35.450Z,0.32
2023-04-14T02:33:35.437Z,0.33
2023-04-14T02:34:37.882Z,0.36
2023-04-14T02:35:35.473Z,0.40
2023-04-14T02:36:35.474Z,0.23
2023-04-14T02:37:35.443Z,0.41
2023-04-14T02:38:35.454Z,0.46
2023-04-14T02:39:35.447Z,0.48
2023-04-14T02:40:35.416Z,0.47
2023-04-14T02:41:35.413Z,0.36
2023-04-14T02:42:35.424Z,0.44
2023-04-14T02:43:35.403Z,0.21
2023-04-14T02:44:35.412Z,0.49
2023-04-14T02:45:35.509Z,0.36
2023-04-14T02:46:35.516Z,0.43
2023-04-14T02:47:35.414Z,0.24
2023-04-14T02:48:35.367Z,0.45
2023-04-14T02:49:35.368Z,0.48
2023-04-14T02:50:35.351Z,0.47
2023-04-14T02:51:35.346Z,0.41
2023-04-14T02:52:35.346Z,0.28
2023-04-14T02:53:35.349Z,0.44
2023-04-14T02:54:35.321Z,0.36
2023-04-14T02:55:35.319Z,0.42
2023-04-14T02:56:35.329Z,0.38
2023-04-14T02:57:35.347Z,0.38
2023-04-14T02:58:35.319Z,0.54
2023-04-14T02:59:35.307Z,0.36
2023-04-14T03:00:35.283Z,0.66
2023-04-14T03:01:35.347Z,0.48
2023-04-14T03:02:35.357Z,0.31
2023-04-14T03:03:35.413Z,0.22
2023-04-14T03:04:35.354Z,0.38
2023-04-14T03:05:35.252Z,0.38
2023-04-14T03:06:35.237Z,0.50
2023-04-14T03:07:35.236Z,0.62
2023-04-14T03:08:35.234Z,0.51
2023-04-14T03:09:35.234Z,0.32
2023-04-14T03:10:35.226Z,0.52
2023-04-14T03:11:35.201Z,0.51
2023-04-14T03:12:35.214Z,0.58
2023-04-14T03:13:35.198Z,0.43
2023-04-14T03:14:35.185Z,0.60
2023-04-14T03:15:35.204Z,0.52
2023-04-14T03:16:35.353Z,0.42
2023-04-14T03:17:35.286Z,0.61
2023-04-14T03:18:35.338Z,0.49
2023-04-14T03:19:35.388Z,0.45
2023-04-14T03:20:35.435Z,0.37
2023-04-14T03:21:35.492Z,0.45
2023-04-14T03:22:35.530Z,0.43
2023-04-14T03:23:35.591Z,0.49
2023-04-14T03:24:35.634Z,0.36
2023-04-14T03:25:35.697Z,0.57
2023-04-14T03:26:35.755Z,0.45
2023-04-14T03:27:35.798Z,0.56
2023-04-14T03:28:37.982Z,0.38
2023-04-14T03:29:35.893Z,0.37
2023-04-14T03:30:35.965Z,0.40
2023-04-14T03:31:36.085Z,0.49
2023-04-14T03:32:36.071Z,0.46
2023-04-14T03:33:36.129Z,0.49
2023-04-14T03:34:36.158Z,0.36
2023-04-14T03:35:36.234Z,0.45
2023-04-14T03:36:36.262Z,0.34
2023-04-14T03:37:36.325Z,0.80
2023-04-14T03:38:36.374Z,0.51
2023-04-14T03:39:36.432Z,0.56
2023-04-14T03:40:36.488Z,0.49
2023-04-14T03:41:36.531Z,0.45
2023-04-14T03:42:36.588Z,0.57
2023-04-14T03:43:36.711Z,0.31
2023-04-14T03:44:36.735Z,0.36
2023-04-14T03:45:36.769Z,0.42
2023-04-14T03:46:36.802Z,0.54
2023-04-14T03:47:36.927Z,0.47
2023-04-14T03:48:36.927Z,0.31
2023-04-14T03:49:36.959Z,0.41
2023-04-14T03:50:37.058Z,0.63
2023-04-14T03:51:37.071Z,0.45
2023-04-14T03:52:37.135Z,0.53
2023-04-14T03:53:37.189Z,0.34
2023-04-14T03:54:37.241Z,0.46
2023-04-14T03:55:37.297Z,0.51
2023-04-14T03:56:37.340Z,0.49
2023-04-14T03:57:37.414Z,0.33
2023-04-14T03:58:37.463Z,0.54
2023-04-14T03:59:37.499Z,0.58
2023-04-14T04:00:37.565Z,0.38
2023-04-14T04:01:37.702Z,0.55
2023-04-14T04:02:37.974Z,0.43
2023-04-14T04:03:37.997Z,0.64
2023-04-14T04:04:37.848Z,0.46
2023-04-14T04:05:37.834Z,0.46
2023-04-14T04:06:37.878Z,0.47
2023-04-14T04:07:37.948Z,0.63
2023-04-14T04:08:38.023Z,0.66
2023-04-14T04:09:38.035Z,0.39
2023-04-14T04:10:38.074Z,0.96
2023-04-14T04:11:38.151Z,0.57
2023-04-14T04:12:38.201Z,0.38
2023-04-14T04:13:38.251Z,0.53
2023-04-14T04:14:39.157Z,0.47
2023-04-14T04:15:38.354Z,0.77
2023-04-14T04:16:38.456Z,0.56
2023-04-14T04:17:38.478Z,0.73
2023-04-14T04:18:38.493Z,0.67
2023-04-14T04:19:38.540Z,0.51
2023-04-14T04:20:38.609Z,0.58
2023-04-14T04:21:38.654Z,0.62
2023-04-14T04:22:38.715Z,0.53
2023-04-14T04:23:38.770Z,0.30
2023-04-14T04:24:38.831Z,0.34
2023-04-14T04:25:38.899Z,0.74
2023-04-14T04:26:38.969Z,0.86
2023-04-14T04:27:39.012Z,0.60
2023-04-14T04:28:39.043Z,0.59
2023-04-14T04:29:39.113Z,0.75
2023-04-14T04:30:39.154Z,0.70
2023-04-14T04:31:39.261Z,0.59
2023-04-14T04:32:39.335Z,0.45
2023-04-14T04:33:39.329Z,0.71
2023-04-14T04:34:39.373Z,0.40
2023-04-14T04:35:39.458Z,0.44
2023-04-14T04:36:39.510Z,0.58
2023-04-14T04:37:39.581Z,0.46
2023-04-14T04:38:39.599Z,0.53
2023-04-14T04:39:39.654Z,0.47
2023-04-14T04:40:39.714Z,0.56
2023-04-14T04:41:39.778Z,0.57
2023-04-14T04:42:39.855Z,0.47
2023-04-14T04:43:39.895Z,0.59
2023-04-14T04:44:39.928Z,0.83
2023-04-14T04:45:40.018Z,0.53
2023-04-14T04:46:40.117Z,0.59
2023-04-14T04:47:40.169Z,0.65
2023-04-14T04:48:40.138Z,0.60
2023-04-14T04:49:40.207Z,0.74
2023-04-14T04:50:40.252Z,0.88
2023-04-14T04:51:40.313Z,0.56
2023-04-14T04:52:40.363Z,0.58
2023-04-14T04:53:40.416Z,0.63
2023-04-14T04:54:40.460Z,0.66
2023-04-14T04:55:40.533Z,0.46
2023-04-14T04:56:40.584Z,0.88
2023-04-14T04:57:40.629Z,0.44
2023-04-14T04:58:40.719Z,0.60
2023-04-14T04:59:40.732Z,0.48
2023-04-14T05:00:40.816Z,0.62
2023-04-14T05:01:40.907Z,0.57
2023-04-14T05:02:41.071Z,0.47
2023-04-14T05:03:40.969Z,0.51
2023-04-14T05:04:41.121Z,0.36
2023-04-14T05:05:41.072Z,0.66
2023-04-14T05:06:41.144Z,0.60
2023-04-14T05:07:41.195Z,0.38
2023-04-14T05:08:41.261Z,0.45
2023-04-14T05:09:41.310Z,0.41
2023-04-14T05:10:41.366Z,0.60
2023-04-14T05:11:41.414Z,0.46
2023-04-14T05:12:41.458Z,0.59
2023-04-14T05:13:41.603Z,0.53
2023-04-14T05:14:41.582Z,0.35
2023-04-14T05:15:41.651Z,0.32
2023-04-14T05:16:41.673Z,0.51
2023-04-14T05:17:41.791Z,0.43
2023-04-14T05:18:41.782Z,0.48
2023-04-14T05:19:41.833Z,0.42
2023-04-14T05:20:41.894Z,0.53
2023-04-14T05:21:41.940Z,0.53
2023-04-14T05:22:41.995Z,0.34
2023-04-14T05:23:42.075Z,0.94
2023-04-14T05:24:42.126Z,0.48
2023-04-14T05:25:42.159Z,0.40
2023-04-14T05:26:52.012Z,0.49
2023-04-14T05:27:43.218Z,0.59
2023-04-14T05:28:42.207Z,0.78
2023-04-14T05:29:42.187Z,0.88
2023-04-14T05:30:42.235Z,0.96
2023-04-14T05:31:42.243Z,0.69
2023-04-14T05:32:42.201Z,0.94
2023-04-14T05:33:42.155Z,0.72
2023-04-14T05:34:42.187Z,0.98
2023-04-14T05:35:42.151Z,0.82
2023-04-14T05:36:42.236Z,1.14
2023-04-14T05:37:42.256Z,1.64
2023-04-14T05:38:42.326Z,1.00
2023-04-14T05:39:42.386Z,1.27
2023-04-14T05:40:42.396Z,1.09
2023-04-14T05:41:42.445Z,0.95
2023-04-14T05:42:42.527Z,0.99
2023-04-14T05:43:42.586Z,0.75
2023-04-14T05:44:42.592Z,1.90
2023-04-14T05:45:42.638Z,1.04
2023-04-14T05:46:42.735Z,1.11
2023-04-14T05:47:42.825Z,1.02
2023-04-14T05:48:42.777Z,1.26
2023-04-14T05:49:42.800Z,0.95
2023-04-14T05:50:42.833Z,1.13
2023-04-14T05:51:42.881Z,1.05
2023-04-14T05:52:42.926Z,1.21
2023-04-14T05:53:42.951Z,0.96
2023-04-14T05:54:43.401Z,0.88
2023-04-14T05:55:43.037Z,0.82
2023-04-14T05:56:43.080Z,0.95
2023-04-14T05:57:43.113Z,1.35
2023-04-14T05:58:43.166Z,0.85
2023-04-14T05:59:43.179Z,1.17
2023-04-14T06:00:43.224Z,0.97
2023-04-14T06:01:43.313Z,0.76
2023-04-14T06:02:43.366Z,0.76
2023-04-14T06:03:43.486Z,1.08
2023-04-14T06:04:43.544Z,1.00
2023-04-14T06:05:43.366Z,0.74
2023-04-14T06:06:43.390Z,0.86
2023-04-14T06:07:43.479Z,1.05
2023-04-14T06:08:43.455Z,1.27
2023-04-14T06:09:43.487Z,0.84
2023-04-14T06:10:43.510Z,0.84
2023-04-14T06:11:43.570Z,0.90
2023-04-14T06:12:43.551Z,0.69
2023-04-14T06:13:43.566Z,1.02
2023-04-14T06:14:43.594Z,0.78
2023-04-14T06:15:43.651Z,0.81
2023-04-14T06:16:43.691Z,0.57
2023-04-14T06:17:43.729Z,0.89
2023-04-14T06:18:43.924Z,0.71
2023-04-14T06:19:43.732Z,0.76
2023-04-14T06:20:43.768Z,0.63
2023-04-14T06:21:43.769Z,0.71
2023-04-14T06:22:43.860Z,0.66
2023-04-14T06:23:43.905Z,0.94
2023-04-14T06:24:43.916Z,0.67
2023-04-14T06:25:43.897Z,0.72
2023-04-14T06:26:43.925Z,0.73
2023-04-14T06:27:43.941Z,0.64
2023-04-14T06:28:44.350Z,0.70
2023-04-14T06:29:43.970Z,0.78
2023-04-14T06:30:44.012Z,0.84
2023-04-14T06:31:44.042Z,0.46
2023-04-14T06:32:44.102Z,0.66
2023-04-14T06:33:44.341Z,0.83
2023-04-14T06:34:44.087Z,0.44
2023-04-14T06:35:44.062Z,0.66
2023-04-14T06:36:44.080Z,0.39
2023-04-14T06:37:44.130Z,0.71
2023-04-14T06:38:44.126Z,0.97
2023-04-14T06:39:44.156Z,0.75
2023-04-14T06:40:44.172Z,0.63
2023-04-14T06:41:44.335Z,0.64
2023-04-14T06:42:44.203Z,0.77
2023-04-14T06:43:44.203Z,0.86
2023-04-14T06:44:44.236Z,0.48
2023-04-14T06:45:44.317Z,0.53
2023-04-14T06:46:44.272Z,0.61
2023-04-14T06:47:44.317Z,0.54
2023-04-14T06:48:44.329Z,0.63
2023-04-14T06:49:44.344Z,0.62
2023-04-14T06:50:44.715Z,0.75
2023-04-14T06:51:44.380Z,0.47
2023-04-14T06:52:44.408Z,0.69
2023-04-14T06:53:44.405Z,0.53
2023-04-14T06:54:44.442Z,0.54
2023-04-14T06:55:44.470Z,0.68
2023-04-14T06:56:44.475Z,0.59
2023-04-14T06:57:44.510Z,0.45
2023-04-14T06:58:44.637Z,0.59
2023-04-14T06:59:44.854Z,0.49
2023-04-14T07:00:44.589Z,0.58
2023-04-14T07:01:44.727Z,0.68
2023-04-14T07:02:44.796Z,0.54
2023-04-14T07:03:44.689Z,0.58
2023-04-14T07:04:44.875Z,0.45
2023-04-14T07:05:44.750Z,0.47
2023-04-14T07:06:44.753Z,0.41
2023-04-14T07:07:44.781Z,0.56
2023-04-14T07:08:44.798Z,0.38
2023-04-14T07:09:44.894Z,0.68
2023-04-14T07:10:44.896Z,0.47
2023-04-14T07:11:44.871Z,0.65
2023-04-14T07:12:44.920Z,0.34
2023-04-14T07:13:44.939Z,0.65
2023-04-14T07:14:44.965Z,2.67
2023-04-14T07:15:45.111Z,0.48
2023-04-14T07:16:45.002Z,0.80
2023-04-14T07:17:45.077Z,0.43
2023-04-14T07:18:45.062Z,0.75
2023-04-14T07:19:45.363Z,0.49
2023-04-14T07:20:45.110Z,0.84
2023-04-14T07:21:45.138Z,0.53
2023-04-14T07:22:45.163Z,0.59
2023-04-14T07:23:45.202Z,0.63
2023-04-14T07:24:45.345Z,0.55
2023-04-14T07:25:45.254Z,0.43
2023-04-14T07:26:45.290Z,0.96
2023-04-14T07:27:59.916Z,0.56
2023-04-14T07:28:46.300Z,0.86
2023-04-14T07:29:45.426Z,1.08
2023-04-14T07:30:45.299Z,1.05
2023-04-14T07:31:45.413Z,0.89
2023-04-14T07:32:45.324Z,2.97
2023-04-14T07:33:45.278Z,1.10
2023-04-14T07:34:45.266Z,1.01
2023-04-14T07:35:54.727Z,1.35
2023-04-14T07:36:46.247Z,1.24
2023-04-14T07:37:45.241Z,1.36
2023-04-14T07:38:45.224Z,1.59
2023-04-14T07:39:45.378Z,1.44
2023-04-14T07:40:45.237Z,1.09
2023-04-14T07:41:45.228Z,1.47
2023-04-14T07:42:45.191Z,1.35
2023-04-14T07:43:45.194Z,1.47
2023-04-14T07:44:45.352Z,1.86
2023-04-14T07:45:45.189Z,2.34
2023-04-14T07:47:18.534Z,2.67
2023-04-14T07:48:18.515Z,2.35
2023-04-14T07:49:18.546Z,2.84
2023-04-14T07:50:19.819Z,1.92
2023-04-14T07:51:18.507Z,1.89
2023-04-14T07:52:18.488Z,2.22
2023-04-14T07:53:18.478Z,1.85
2023-04-14T07:54:18.475Z,1.45
2023-04-14T07:55:18.723Z,1.58
2023-04-14T07:56:19.205Z,1.99
2023-04-14T07:57:18.434Z,1.56
2023-04-14T07:58:18.430Z,1.56
2023-04-14T07:59:18.425Z,1.58
2023-04-14T08:00:18.427Z,1.51
2023-04-14T08:01:18.422Z,1.25
2023-04-14T08:02:18.498Z,1.26
2023-04-14T08:03:18.487Z,1.03
2023-04-14T08:04:18.485Z,1.01
2023-04-14T08:05:18.432Z,0.92
2023-04-14T08:06:18.364Z,0.82
2023-04-14T08:07:18.377Z,0.79
2023-04-14T08:08:18.353Z,1.18
2023-04-14T08:09:18.353Z,2.34
2023-04-14T08:10:18.340Z,2.10
2023-04-14T08:11:18.341Z,1.82
2023-04-14T08:12:18.347Z,1.49
2023-04-14T08:13:18.325Z,1.34
2023-04-14T08:14:18.316Z,1.53
2023-04-14T08:15:18.321Z,1.38
2023-04-14T08:16:18.360Z,1.43
2023-04-14T08:17:18.333Z,1.33
2023-04-14T08:18:18.314Z,1.80
2023-04-14T08:19:18.374Z,0.99
2023-04-14T08:20:18.424Z,1.28
2023-04-14T08:21:18.735Z,1.18
2023-04-14T08:22:18.521Z,2.05
2023-04-14T08:23:18.572Z,1.52
2023-04-14T08:24:18.577Z,1.50
2023-04-14T08:25:18.627Z,1.21
2023-04-14T08:26:18.659Z,1.60
2023-04-14T08:27:18.683Z,2.33
2023-04-14T08:28:18.692Z,1.45
2023-04-14T08:29:18.737Z,1.69
2023-04-14T08:30:18.765Z,1.57
2023-04-14T08:31:18.741Z,1.30
2023-04-14T08:32:18.796Z,1.21
2023-04-14T08:33:18.761Z,1.76
2023-04-14T08:34:21.772Z,1.08
2023-04-14T08:35:38.624Z,1.27
2023-04-14T08:36:19.772Z,1.70
2023-04-14T08:37:18.791Z,1.53
2023-04-14T08:38:18.758Z,1.47
2023-04-14T08:39:18.754Z,1.48
2023-04-14T08:40:18.779Z,1.63
2023-04-14T08:41:18.764Z,2.04
2023-04-14T08:42:18.721Z,1.17
2023-04-14T08:43:18.734Z,1.53
2023-04-14T08:44:18.729Z,1.43
2023-04-14T08:45:18.712Z,1.43
2023-04-14T08:46:18.797Z,1.21
2023-04-14T08:47:18.693Z,1.51
2023-04-14T08:48:18.677Z,1.22
2023-04-14T08:49:18.691Z,1.42
2023-04-14T08:50:18.725Z,1.64
2023-04-14T08:51:18.674Z,1.14
2023-04-14T08:52:18.654Z,1.34
2023-04-14T08:53:18.693Z,1.00
2023-04-14T08:54:18.686Z,1.45
2023-04-14T08:55:18.733Z,1.40
2023-04-14T08:56:18.746Z,1.30
2023-04-14T08:57:18.630Z,1.22
2023-04-14T08:58:18.604Z,1.41
2023-04-14T08:59:18.609Z,1.20
2023-04-14T09:00:18.591Z,1.18
2023-04-14T09:01:18.608Z,1.26
2023-04-14T09:02:18.625Z,1.04
2023-04-14T09:03:18.697Z,0.86
2023-04-14T09:04:18.740Z,0.99
2023-04-14T09:05:18.578Z,1.10
2023-04-14T09:06:18.562Z,0.83
2023-04-14T09:07:18.596Z,0.94
2023-04-14T09:08:18.535Z,0.93
2023-04-14T09:09:18.531Z,0.89
2023-04-14T09:10:18.793Z,1.01
2023-04-14T09:11:18.540Z,1.03
2023-04-14T09:12:18.736Z,1.06
2023-04-14T09:13:18.521Z,0.54
2023-04-14T09:14:18.505Z,0.83
2023-04-14T09:15:18.512Z,0.99
2023-04-14T09:16:18.558Z,0.92
2023-04-14T09:17:18.778Z,1.08
2023-04-14T09:18:18.509Z,1.42
2023-04-14T09:19:18.462Z,1.34
2023-04-14T09:20:38.105Z,0.97
2023-04-14T09:21:50.856Z,1.10
2023-04-14T09:22:19.463Z,1.13
2023-04-14T09:23:18.447Z,1.44
2023-04-14T09:24:18.460Z,1.25
2023-04-14T09:25:18.429Z,1.52
2023-04-14T09:26:18.441Z,1.40
2023-04-14T09:27:18.436Z,0.98
2023-04-14T09:28:18.437Z,1.38
2023-04-14T09:29:18.404Z,1.60
2023-04-14T09:30:18.398Z,1.60
2023-04-14T09:31:18.423Z,1.47
2023-04-14T09:32:18.762Z,1.81
2023-04-14T09:33:18.440Z,1.21
2023-04-14T09:34:18.521Z,0.98
2023-04-14T09:35:18.361Z,0.67
2023-04-14T09:36:18.364Z,0.82
2023-04-14T09:37:18.345Z,0.90
2023-04-14T09:38:18.332Z,0.43
2023-04-14T09:39:18.332Z,1.42
2023-04-14T09:40:18.353Z,1.04
2023-04-14T09:41:18.333Z,0.82
2023-04-14T09:42:18.308Z,1.10
2023-04-14T09:43:18.312Z,1.23
2023-04-14T09:44:18.302Z,1.09
2023-04-14T09:45:18.306Z,0.91
2023-04-14T09:46:18.295Z,0.87
2023-04-14T09:47:18.333Z,0.75
2023-04-14T09:48:18.261Z,1.10
2023-04-14T09:49:18.273Z,0.74
2023-04-14T09:50:18.290Z,1.24
2023-04-14T09:51:18.247Z,0.84
2023-04-14T09:52:18.743Z,0.73
2023-04-14T09:53:18.317Z,0.90
2023-04-14T09:54:18.345Z,0.91
2023-04-14T09:55:18.416Z,0.85
2023-04-14T09:56:18.441Z,0.75
2023-04-14T09:57:18.422Z,0.55
2023-04-14T09:58:18.450Z,0.69
2023-04-14T09:59:18.445Z,0.80
2023-04-14T10:00:18.471Z,0.78
2023-04-14T10:01:18.522Z,0.79
2023-04-14T10:02:18.535Z,0.82
2023-04-14T10:03:18.458Z,0.49
2023-04-14T10:04:18.473Z,0.90
2023-04-14T10:05:18.558Z,1.01
2023-04-14T10:06:18.431Z,0.69
2023-04-14T10:07:18.463Z,0.70
2023-04-14T10:08:18.445Z,0.71
2023-04-14T10:09:18.453Z,0.63
2023-04-14T10:10:18.457Z,0.83
2023-04-14T10:11:18.468Z,0.64
2023-04-14T10:12:18.482Z,1.07
2023-04-14T10:13:18.485Z,0.91
2023-04-14T10:14:18.485Z,0.69
2023-04-14T10:15:18.506Z,0.67
2023-04-14T10:16:18.608Z,0.61
2023-04-14T10:17:18.512Z,0.60
2023-04-14T10:18:18.723Z,0.72
2023-04-14T10:19:18.555Z,0.52
2023-04-14T10:20:18.612Z,1.18
2023-04-14T10:21:18.771Z,1.46
2023-04-14T10:22:18.753Z,1.36
2023-04-14T10:23:18.624Z,1.47
2023-04-14T10:24:18.619Z,1.65
2023-04-14T10:25:18.654Z,0.84
2023-04-14T10:26:18.693Z,1.41
2023-04-14T10:27:18.732Z,1.53
2023-04-14T10:28:18.799Z,1.49
2023-04-14T10:29:18.832Z,1.39
2023-04-14T10:30:18.903Z,1.04
2023-04-14T10:31:18.900Z,1.37
2023-04-14T10:32:19.021Z,1.38
2023-04-14T10:33:18.930Z,1.18
2023-04-14T10:34:18.965Z,1.66
2023-04-14T10:35:18.944Z,1.29
2023-04-14T10:36:18.963Z,1.90
2023-04-14T10:37:18.988Z,0.97
2023-04-14T10:38:18.968Z,1.65
2023-04-14T10:39:18.991Z,1.01
2023-04-14T10:40:19.086Z,1.14
2023-04-14T10:41:18.971Z,1.18
2023-04-14T10:42:18.993Z,1.17
2023-04-14T10:43:18.989Z,0.82
2023-04-14T10:44:19.018Z,0.84
2023-04-14T10:45:19.059Z,1.51
2023-04-14T10:46:19.117Z,1.11
2023-04-14T10:47:19.169Z,0.84
2023-04-14T10:48:19.195Z,0.96
2023-04-14T10:49:19.252Z,0.85
2023-04-14T10:50:19.460Z,0.53
2023-04-14T10:51:19.382Z,0.91
2023-04-14T10:52:19.442Z,0.92
2023-04-14T10:53:19.493Z,1.02
2023-04-14T10:54:19.576Z,0.99
2023-04-14T10:55:19.603Z,1.15
2023-04-14T10:56:19.669Z,0.57
2023-04-14T10:57:20.104Z,1.56
2023-04-14T10:58:19.795Z,0.75
2023-04-14T10:59:19.831Z,0.47
2023-04-14T11:00:19.891Z,0.54
2023-04-14T11:01:19.969Z,0.72
2023-04-14T11:02:20.097Z,1.56
2023-04-14T11:03:20.228Z,0.80
2023-04-14T11:04:20.206Z,0.85
2023-04-14T11:05:20.138Z,0.71
2023-04-14T11:06:20.206Z,1.15
2023-04-14T11:07:20.256Z,0.79
2023-04-14T11:08:20.318Z,0.66
2023-04-14T11:09:20.364Z,1.25
2023-04-14T11:10:20.409Z,0.54
2023-04-14T11:11:20.475Z,0.81
2023-04-14T11:12:20.791Z,1.16
2023-04-14T11:13:20.623Z,0.90
2023-04-14T11:14:20.694Z,1.25
2023-04-14T11:15:20.721Z,1.61
2023-04-14T11:16:20.790Z,1.05
2023-04-14T11:17:21.388Z,1.11
2023-04-14T11:18:20.920Z,0.94
2023-04-14T11:19:20.889Z,1.16
2023-04-14T11:20:20.952Z,1.25
2023-04-14T11:21:21.293Z,1.39
2023-04-14T11:22:21.298Z,0.85
2023-04-14T11:23:21.086Z,1.35
2023-04-14T11:24:21.155Z,0.66
2023-04-14T11:25:24.003Z,1.42
2023-04-14T11:26:21.286Z,0.88
2023-04-14T11:27:21.192Z,0.87
2023-04-14T11:28:21.177Z,1.08
2023-04-14T11:29:21.172Z,1.22
2023-04-14T11:30:21.225Z,1.25
2023-04-14T11:31:23.211Z,1.49
2023-04-14T11:32:21.302Z,1.57
2023-04-14T11:33:21.141Z,1.39
2023-04-14T11:34:21.165Z,0.96
2023-04-14T11:35:21.188Z,1.20
2023-04-14T11:36:21.201Z,1.22
2023-04-14T11:37:22.621Z,1.03
2023-04-14T11:38:21.283Z,1.00
2023-04-14T11:39:21.328Z,0.66
2023-04-14T11:40:21.426Z,1.04
2023-04-14T11:41:21.459Z,1.58
2023-04-14T11:42:21.504Z,1.48
2023-04-14T11:43:22.842Z,1.09
2023-04-14T11:44:21.630Z,0.88
2023-04-14T11:45:21.672Z,1.00
2023-04-14T11:46:21.786Z,0.74
2023-04-14T11:47:21.835Z,1.58
2023-04-14T11:48:21.892Z,0.68
2023-04-14T11:49:22.282Z,1.10
2023-04-14T11:50:22.009Z,1.18
2023-04-14T11:51:22.037Z,0.80
2023-04-14T11:52:22.130Z,1.18
2023-04-14T11:53:22.130Z,1.33
2023-04-14T11:54:22.270Z,1.11
2023-04-14T11:55:22.272Z,1.09
2023-04-14T11:56:22.321Z,0.69
2023-04-14T11:57:22.393Z,0.92
2023-04-14T11:58:22.430Z,0.78
2023-04-14T11:59:22.502Z,1.14
2023-04-14T12:00:22.546Z,0.63
2023-04-14T12:01:22.641Z,0.54
2023-04-14T12:02:22.880Z,0.69
2023-04-14T12:03:22.851Z,0.91
2023-04-14T12:04:22.944Z,0.64
2023-04-14T12:05:22.938Z,0.92
2023-04-14T12:06:22.904Z,0.85
2023-04-14T12:07:22.917Z,0.81
2023-04-14T12:08:22.990Z,0.83
2023-04-14T12:09:23.050Z,0.76
2023-04-14T12:10:23.076Z,0.77
2023-04-14T12:11:23.160Z,0.84
2023-04-14T12:12:23.200Z,0.82
2023-04-14T12:13:23.235Z,0.55
2023-04-14T12:14:23.283Z,0.68
2023-04-14T12:15:23.311Z,0.78
2023-04-14T12:16:23.445Z,0.62
2023-04-14T12:17:23.437Z,0.63
2023-04-14T12:18:23.504Z,0.74
2023-04-14T12:19:23.517Z,0.93
2023-04-14T12:20:23.588Z,0.63
2023-04-14T12:21:23.572Z,1.05
2023-04-14T12:22:23.645Z,0.38
2023-04-14T12:23:23.697Z,0.43
2023-04-14T12:24:23.673Z,0.56
2023-04-14T12:25:23.722Z,0.61
2023-04-14T12:26:23.750Z,0.58
2023-04-14T12:27:23.811Z,1.00
2023-04-14T12:28:23.817Z,0.66
2023-04-14T12:29:23.849Z,0.58
2023-04-14T12:30:23.875Z,0.97
2023-04-14T12:31:23.942Z,0.60
2023-04-14T12:32:23.964Z,0.43
2023-04-14T12:33:23.984Z,0.58
2023-04-14T12:34:24.012Z,0.56
2023-04-14T12:35:24.037Z,0.53
2023-04-14T12:36:29.747Z,0.47
2023-04-14T12:37:25.063Z,0.75
2023-04-14T12:38:24.014Z,0.94
2023-04-14T12:39:24.047Z,0.77
2023-04-14T12:40:23.992Z,0.36
2023-04-14T12:41:23.996Z,0.62
2023-04-14T12:42:24.018Z,0.57
2023-04-14T12:43:23.981Z,0.50
2023-04-14T12:44:23.985Z,0.35
2023-04-14T12:45:23.985Z,0.54
2023-04-14T12:46:23.975Z,0.50
2023-04-14T12:47:24.031Z,0.45
2023-04-14T12:48:23.942Z,0.48
2023-04-14T12:49:23.934Z,1.13
2023-04-14T12:50:23.938Z,0.65
2023-04-14T12:51:23.922Z,0.61
2023-04-14T12:52:23.944Z,0.50
2023-04-14T12:53:23.912Z,1.12
2023-04-14T12:54:23.914Z,0.71
2023-04-14T12:55:23.896Z,0.52
2023-04-14T12:56:23.889Z,0.40
2023-04-14T12:57:23.921Z,0.28
2023-04-14T12:58:23.939Z,0.57
2023-04-14T12:59:23.963Z,0.45
2023-04-14T13:00:24.008Z,0.73
2023-04-14T13:01:24.044Z,0.49
2023-04-14T13:02:24.101Z,0.41
2023-04-14T13:03:24.229Z,0.44
2023-04-14T13:04:24.121Z,0.38
2023-04-14T13:05:24.080Z,0.36
2023-04-14T13:06:24.134Z,0.42
2023-04-14T13:07:24.189Z,0.44
2023-04-14T13:08:24.133Z,0.55
2023-04-14T13:09:24.151Z,0.46
2023-04-14T13:10:24.181Z,0.42
2023-04-14T13:11:24.177Z,0.28
2023-04-14T13:12:24.226Z,0.58
2023-04-14T13:13:24.218Z,0.39
2023-04-14T13:14:24.262Z,0.40
2023-04-14T13:16:09.049Z,0.50
2023-04-14T13:16:26.297Z,0.42
2023-04-14T13:17:24.546Z,0.40
2023-04-14T13:18:24.241Z,0.42
2023-04-14T13:19:24.256Z,0.37